Time;durP1;ratioP1;P1;durP2;ratioP2;P2;SDS_P1;SDS_P2;PMS_P1;PMS_P2;Temp;Humidity;BMP_temperature;BMP_pressure;BME280_temperature;BME280_humidity;BME280_pressure;Samples;Min_cycle;Max_cycle;Signal;HPM_P1;HPM_P2
2022/04/29 00:00:24;;;;;;;7.70;7.10;;;10.30;99.90;;;;;;6258966;28;20324;-56
2022/04/29 00:03:29;;;;;;;8.20;7.60;;;10.20;99.90;;;;;;6284794;28;20511;-56
2022/04/29 00:06:31;;;;;;;7.80;7.23;;;10.20;99.90;;;;;;6277568;28;20706;-57
2022/04/29 00:09:35;;;;;;;8.80;8.20;;;10.20;99.90;;;;;;6274248;28;20825;-55
2022/04/29 00:12:38;;;;;;;8.43;7.70;;;10.20;99.90;;;;;;6279254;28;20240;-56
2022/04/29 00:15:41;;;;;;;9.70;8.80;;;10.10;99.90;;;;;;6285055;28;20700;-56
2022/04/29 00:18:46;;;;;;;11.13;10.07;;;10.10;99.90;;;;;;6260941;28;20234;-55
2022/04/29 00:21:51;;;;;;;11.10;10.10;;;10.10;99.90;;;;;;6260618;28;20320;-56
2022/04/29 00:24:54;;;;;;;10.93;9.97;;;10.10;99.90;;;;;;6259120;28;20241;-55
2022/04/29 00:28:09;;;;;;;10.17;9.30;;;10.10;99.90;;;;;;6259811;28;20234;-55
2022/04/29 00:31:12;;;;;;;9.70;8.90;;;10.10;99.90;;;;;;6263003;28;20711;-54
2022/04/29 00:34:16;;;;;;;9.60;8.90;;;10.10;99.90;;;;;;6280832;28;20615;-55
2022/04/29 00:37:21;;;;;;;10.20;9.37;;;10.00;99.90;;;;;;6270982;28;20390;-56
2022/04/29 00:40:30;;;;;;;10.77;9.63;;;10.00;99.90;;;;;;6282093;28;20423;-55
2022/04/29 00:43:33;;;;;;;10.57;9.47;;;9.90;99.90;;;;;;6263849;28;20496;-56
2022/04/29 00:46:45;;;;;;;10.37;9.37;;;9.90;99.90;;;;;;6260884;28;20319;-56
2022/04/29 00:49:49;;;;;;;9.63;8.83;;;9.90;99.90;;;;;;6263628;28;20239;-56
2022/04/29 00:52:55;;;;;;;9.97;9.20;;;9.80;99.90;;;;;;6285561;28;20248;-56
2022/04/29 00:55:58;;;;;;;9.80;8.80;;;9.80;99.90;;;;;;6281617;28;20251;-55
2022/04/29 00:59:06;;;;;;;10.13;9.10;;;9.70;99.90;;;;;;6275902;28;20314;-55
2022/04/29 01:02:10;;;;;;;10.43;9.53;;;9.70;99.90;;;;;;6286497;28;20316;-55
2022/04/29 01:05:16;;;;;;;10.30;9.30;;;9.70;99.90;;;;;;6261439;28;20599;-50
2022/04/29 01:08:19;;;;;;;9.70;9.00;;;9.60;99.90;;;;;;6279446;28;20282;-54
2022/04/29 01:11:24;;;;;;;9.57;8.77;;;9.60;99.90;;;;;;6284131;28;20542;-55
2022/04/29 01:14:27;;;;;;;9.43;8.70;;;9.50;99.90;;;;;;6284849;28;20237;-54
2022/04/29 01:17:40;;;;;;;9.60;8.80;;;9.50;99.90;;;;;;6270428;28;20233;-56
2022/04/29 01:20:44;;;;;;;10.03;9.30;;;9.50;99.90;;;;;;6259361;28;20258;-55
2022/04/29 01:23:48;;;;;;;9.60;8.90;;;9.50;99.90;;;;;;6260478;28;20237;-55
2022/04/29 01:26:51;;;;;;;10.70;9.73;;;9.40;99.90;;;;;;6256032;28;20322;-55
2022/04/29 01:29:59;;;;;;;11.00;10.00;;;9.40;99.90;;;;;;6259497;28;20387;-56
2022/04/29 01:33:03;;;;;;;9.13;8.43;;;9.40;99.90;;;;;;6269505;28;20233;-56
2022/04/29 01:36:07;;;;;;;9.60;8.93;;;9.30;99.90;;;;;;6292311;28;20236;-54
2022/04/29 01:39:13;;;;;;;10.00;9.10;;;9.40;99.90;;;;;;6285747;28;20374;-56
2022/04/29 01:42:16;;;;;;;10.90;10.00;;;9.30;99.90;;;;;;6279047;28;20241;-54
2022/04/29 01:45:18;;;;;;;14.63;11.50;;;9.30;99.90;;;;;;6259495;28;20312;-56
2022/04/29 01:48:25;;;;;;;11.60;10.57;;;9.20;99.90;;;;;;6259002;28;20230;-56
2022/04/29 01:51:27;;;;;;;10.97;10.00;;;9.20;99.90;;;;;;6273600;28;20334;-56
2022/04/29 01:54:32;;;;;;;10.33;9.50;;;9.30;99.90;;;;;;6279786;28;20233;-54
2022/04/29 01:57:35;;;;;;;9.93;9.03;;;9.30;99.90;;;;;;6281262;28;20298;-56
2022/04/29 02:00:39;;;;;;;10.03;9.23;;;9.30;99.90;;;;;;6275614;28;20372;-61
2022/04/29 02:03:41;;;;;;;10.27;9.47;;;9.20;99.90;;;;;;6272038;28;20320;-56
2022/04/29 02:06:45;;;;;;;9.53;8.73;;;9.20;99.90;;;;;;6271568;28;20229;-57
2022/04/29 02:09:49;;;;;;;9.50;8.70;;;9.20;99.90;;;;;;6282344;28;20504;-56
2022/04/29 02:12:52;;;;;;;8.90;8.20;;;9.20;99.90;;;;;;6257579;28;20248;-56
2022/04/29 02:15:54;;;;;;;9.33;8.57;;;9.20;99.90;;;;;;6275721;28;20434;-54
2022/04/29 02:18:57;;;;;;;8.67;8.07;;;9.10;99.90;;;;;;6283042;28;20475;-56
2022/04/29 02:22:01;;;;;;;8.80;8.10;;;9.10;99.90;;;;;;6282272;28;20240;-56
2022/04/29 02:25:06;;;;;;;8.40;7.80;;;9.10;99.90;;;;;;6281548;28;20902;-56
2022/04/29 02:28:08;;;;;;;7.90;7.33;;;9.10;99.90;;;;;;6282736;28;20357;-56
2022/04/29 02:31:11;;;;;;;7.97;7.47;;;9.00;99.90;;;;;;6280837;28;20511;-55
2022/04/29 02:34:16;;;;;;;6.77;6.23;;;9.10;99.90;;;;;;6267311;28;20269;-56
2022/04/29 02:37:18;;;;;;;7.17;6.57;;;9.00;99.90;;;;;;6276468;28;20276;-55
2022/04/29 02:40:25;;;;;;;6.73;6.37;;;9.00;99.90;;;;;;6278188;28;20264;-54
2022/04/29 02:43:34;;;;;;;7.17;6.70;;;8.90;99.90;;;;;;6258276;28;20233;-55
2022/04/29 02:47:06;;;;;;;6.97;6.60;;;8.90;99.90;;;;;;6258261;28;20234;-56
2022/04/29 02:50:01;;;;;;;7.20;6.80;;;8.90;99.90;;;;;;6272360;28;20732;-56
2022/04/29 02:53:05;;;;;;;6.40;6.10;;;8.80;99.90;;;;;;6258602;28;20245;-55
2022/04/29 02:56:12;;;;;;;7.67;7.17;;;8.80;99.90;;;;;;6242338;28;20382;-56
2022/04/29 02:59:23;;;;;;;7.63;7.13;;;8.70;99.90;;;;;;6256890;28;20593;-56
2022/04/29 03:02:26;;;;;;;7.50;7.07;;;8.70;99.90;;;;;;6258947;28;20720;-56
2022/04/29 03:05:29;;;;;;;6.73;6.37;;;8.70;99.90;;;;;;6272986;28;20891;-55
2022/04/29 03:08:32;;;;;;;7.00;6.60;;;8.70;99.90;;;;;;6282754;28;20777;-55
2022/04/29 03:11:36;;;;;;;7.33;6.93;;;8.60;99.90;;;;;;6278189;28;20230;-55
2022/04/29 03:14:39;;;;;;;6.80;6.30;;;8.60;99.90;;;;;;6280988;28;20366;-55
2022/04/29 03:21:03;;;;;;;7.07;6.67;;;8.60;99.90;;;;;;6268172;28;20704;-56
2022/04/29 03:24:09;;;;;;;7.30;6.80;;;8.50;99.90;;;;;;6277718;28;20740;-55
2022/04/29 03:27:13;;;;;;;6.90;6.60;;;8.50;99.90;;;;;;6278883;28;20697;-54
2022/04/29 03:30:16;;;;;;;6.70;6.30;;;8.50;99.90;;;;;;6280268;28;20237;-56
2022/04/29 03:33:19;;;;;;;6.57;6.13;;;8.50;99.90;;;;;;6263289;28;20404;-54
2022/04/29 03:36:22;;;;;;;6.40;6.10;;;8.50;99.90;;;;;;6289386;28;20719;-56
2022/04/29 03:39:28;;;;;;;7.23;6.73;;;8.40;99.90;;;;;;6292641;28;20236;-54
2022/04/29 03:42:33;;;;;;;7.47;7.07;;;8.30;99.90;;;;;;6287252;28;20561;-56
2022/04/29 03:45:36;;;;;;;7.37;6.67;;;8.40;99.90;;;;;;6307389;28;20241;-56
2022/04/29 03:52:06;;;;;;;7.10;6.63;;;8.30;99.90;;;;;;6294399;28;20233;-56
2022/04/29 03:55:09;;;;;;;6.60;6.20;;;8.30;99.90;;;;;;6309432;28;20320;-56
2022/04/29 03:58:13;;;;;;;6.43;6.13;;;8.30;99.90;;;;;;6310921;28;20232;-56
2022/04/29 04:01:16;;;;;;;7.30;6.80;;;8.30;99.90;;;;;;6294673;28;20243;-56
2022/04/29 04:04:18;;;;;;;6.90;6.50;;;8.30;99.90;;;;;;6299997;28;20232;-56
2022/04/29 04:07:22;;;;;;;6.63;6.33;;;8.40;99.90;;;;;;6296499;28;20323;-55
2022/04/29 04:10:25;;;;;;;6.30;5.90;;;8.50;99.90;;;;;;6294032;28;20240;-56
2022/04/29 04:13:29;;;;;;;6.47;5.80;;;8.40;99.90;;;;;;6291174;28;20226;-56
2022/04/29 04:16:32;;;;;;;5.97;5.67;;;8.50;99.90;;;;;;6304333;27;20360;-57
2022/04/29 04:19:41;;;;;;;6.87;6.27;;;8.50;99.90;;;;;;6292141;28;20718;-58
2022/04/29 04:22:44;;;;;;;6.23;5.93;;;8.60;99.90;;;;;;6288356;28;20514;-56
2022/04/29 04:25:47;;;;;;;6.07;5.73;;;8.60;99.90;;;;;;6288627;28;20244;-56
2022/04/29 04:28:51;;;;;;;6.63;6.07;;;8.70;99.90;;;;;;6290212;28;20603;-56
2022/04/29 04:31:54;;;;;;;6.03;5.57;;;8.80;99.90;;;;;;6284986;28;20345;-56
2022/04/29 04:34:58;;;;;;;6.43;5.97;;;8.80;99.90;;;;;;6285193;28;20261;-56
2022/04/29 04:38:00;;;;;;;6.47;5.97;;;8.90;99.90;;;;;;6302359;28;20290;-55
2022/04/29 04:41:03;;;;;;;6.83;6.23;;;9.00;99.90;;;;;;6293160;28;20233;-56
2022/04/29 04:44:08;;;;;;;5.73;5.33;;;9.20;99.90;;;;;;6285846;28;20743;-55
2022/04/29 04:47:11;;;;;;;6.17;5.63;;;9.30;99.90;;;;;;6296667;28;20282;-55
2022/04/29 04:50:14;;;;;;;6.73;6.27;;;9.40;99.90;;;;;;6284240;28;20676;-55
2022/04/29 04:53:17;;;;;;;6.00;5.50;;;9.50;99.90;;;;;;6284103;28;20290;-56
2022/04/29 04:56:20;;;;;;;6.07;5.60;;;9.60;99.90;;;;;;6289275;28;20232;-54
2022/04/29 04:59:24;;;;;;;6.47;5.97;;;9.70;99.90;;;;;;6290709;28;20715;-56
2022/04/29 05:02:32;;;;;;;6.17;5.87;;;9.90;99.90;;;;;;6296193;28;20739;-56
2022/04/29 05:05:36;;;;;;;5.87;5.40;;;10.00;99.90;;;;;;6308285;28;20553;-56
2022/04/29 05:08:39;;;;;;;5.37;5.07;;;10.10;99.90;;;;;;6294911;28;20278;-54
2022/04/29 05:11:41;;;;;;;6.67;5.80;;;10.20;99.90;;;;;;6283264;28;20261;-56
2022/04/29 05:15:09;;;;;;;6.90;6.20;;;10.50;99.90;;;;;;6292863;28;20744;-55
2022/04/29 05:18:12;;;;;;;5.13;4.80;;;10.60;99.90;;;;;;6287382;28;20241;-56
2022/04/29 05:21:15;;;;;;;5.83;5.37;;;10.80;99.90;;;;;;6283254;28;20248;-56
2022/04/29 05:24:27;;;;;;;5.67;5.17;;;11.00;99.90;;;;;;6283448;28;20319;-55
2022/04/29 05:27:30;;;;;;;5.70;5.20;;;11.10;99.90;;;;;;6281483;28;20278;-56
2022/04/29 05:30:35;;;;;;;5.60;5.03;;;11.20;99.90;;;;;;6284220;28;20443;-56
2022/04/29 05:33:39;;;;;;;5.57;4.60;;;11.30;99.90;;;;;;6275045;28;20324;-53
2022/04/29 05:36:44;;;;;;;5.67;5.23;;;11.40;99.90;;;;;;6278562;28;20241;-56
2022/04/29 05:43:10;;;;;;;6.40;5.90;;;11.60;99.90;;;;;;6279914;28;20239;-55
2022/04/29 05:46:14;;;;;;;7.37;5.57;;;11.80;99.90;;;;;;6282530;28;20623;-54
2022/04/29 05:49:17;;;;;;;8.10;6.07;;;11.90;99.90;;;;;;6283413;28;20241;-55
2022/04/29 05:52:20;;;;;;;12.87;5.93;;;12.10;99.90;;;;;;6275938;28;20243;-55
2022/04/29 05:55:28;;;;;;;13.07;5.87;;;12.30;99.90;;;;;;6280445;28;20241;-56
2022/04/29 05:58:50;;;;;;;8.03;5.30;;;12.30;99.90;;;;;;6292260;28;20229;-55
2022/04/29 06:01:59;;;;;;;12.90;6.07;;;12.50;99.90;;;;;;6282468;28;20724;-53
2022/04/29 06:05:02;;;;;;;9.73;5.70;;;12.70;99.90;;;;;;6281407;28;20359;-55
2022/04/29 06:08:05;;;;;;;10.10;6.20;;;12.80;99.90;;;;;;6284301;28;20243;-57
2022/04/29 06:11:08;;;;;;;9.33;5.87;;;13.00;99.90;;;;;;6283237;28;20335;-56
2022/04/29 06:14:11;;;;;;;11.67;5.67;;;13.20;99.90;;;;;;6298782;28;20231;-56
2022/04/29 06:17:15;;;;;;;11.30;6.37;;;13.60;99.90;;;;;;6305363;28;20244;-54
2022/04/29 06:20:18;;;;;;;6.20;5.03;;;14.00;99.90;;;;;;6306644;28;20437;-54
2022/04/29 06:23:21;;;;;;;12.80;5.70;;;14.30;99.90;;;;;;6303696;28;20252;-54
2022/04/29 06:26:23;;;;;;;9.97;5.30;;;14.60;99.90;;;;;;6304984;28;20705;-54
2022/04/29 06:29:26;;;;;;;9.53;5.03;;;14.90;99.90;;;;;;6305229;28;20610;-56
2022/04/29 06:32:33;;;;;;;6.63;4.40;;;14.90;99.90;;;;;;6282708;28;20913;-55
2022/04/29 06:35:43;;;;;;;8.20;4.50;;;15.10;99.90;;;;;;6285435;28;20746;-56
2022/04/29 06:38:47;;;;;;;5.20;4.70;;;15.20;99.90;;;;;;6278447;28;20424;-54
2022/04/29 06:41:50;;;;;;;5.63;4.07;;;15.40;99.90;;;;;;6284086;28;20249;-55
2022/04/29 06:44:52;;;;;;;7.10;4.47;;;15.50;99.90;;;;;;6280058;28;20241;-54
2022/04/29 06:47:56;;;;;;;4.67;4.17;;;15.60;99.90;;;;;;6282122;28;20233;-55
2022/04/29 06:50:59;;;;;;;5.63;4.10;;;15.60;99.90;;;;;;6280802;28;20290;-54
2022/04/29 06:54:02;;;;;;;5.27;3.47;;;15.70;99.90;;;;;;6274125;28;20241;-54
2022/04/29 06:57:09;;;;;;;5.83;3.60;;;15.70;99.90;;;;;;6286688;28;20327;-54
2022/04/29 07:00:13;;;;;;;3.87;3.43;;;15.80;99.90;;;;;;6300905;28;20320;-54
2022/04/29 07:03:16;;;;;;;4.63;3.30;;;15.90;99.90;;;;;;6304900;28;20236;-55
2022/04/29 07:06:19;;;;;;;4.13;3.30;;;16.20;99.90;;;;;;6309569;28;20236;-56
2022/04/29 07:09:22;;;;;;;5.97;2.90;;;16.40;99.90;;;;;;6305570;28;20281;-55
2022/04/29 07:12:46;;;;;;;8.80;3.83;;;16.60;99.90;;;;;;6279627;28;20226;-55
2022/04/29 07:15:49;;;;;;;9.33;4.13;;;16.60;99.90;;;;;;6279615;28;20761;-56
2022/04/29 07:18:54;;;;;;;10.40;4.07;;;16.40;99.90;;;;;;6299542;28;20243;-54
2022/04/29 07:21:58;;;;;;;8.13;3.87;;;16.10;99.90;;;;;;6305137;27;20745;-59
2022/04/29 07:25:01;;;;;;;3.57;3.27;;;16.20;99.90;;;;;;6293713;28;20366;-55
2022/04/29 07:28:04;;;;;;;6.50;2.97;;;16.20;99.90;;;;;;6279642;28;20233;-55
2022/04/29 07:31:07;;;;;;;4.77;3.33;;;16.40;99.90;;;;;;6280379;28;20727;-55
2022/04/29 07:34:11;;;;;;;7.37;3.50;;;16.50;99.90;;;;;;6279509;28;20436;-56
2022/04/29 07:43:56;;;;;;;4.63;3.17;;;16.70;99.90;;;;;;6298888;28;20260;-54
2022/04/29 07:46:59;;;;;;;9.50;3.87;;;16.50;99.90;;;;;;6304829;28;20409;-55
2022/04/29 07:50:03;;;;;;;5.90;3.37;;;16.60;99.90;;;;;;6303673;28;20640;-56
2022/04/29 07:53:08;;;;;;;4.47;3.37;;;16.70;99.90;;;;;;6305237;28;20335;-55
2022/04/29 07:56:11;;;;;;;6.13;3.57;;;16.70;99.90;;;;;;6304326;28;20757;-54
2022/04/29 07:59:14;;;;;;;6.70;3.40;;;16.70;99.90;;;;;;6304625;28;20326;-55
2022/04/29 08:02:17;;;;;;;4.70;3.23;;;16.70;99.90;;;;;;6300638;28;20228;-55
2022/04/29 08:05:22;;;;;;;8.67;4.07;;;16.60;99.90;;;;;;6300613;28;20864;-55
2022/04/29 08:08:25;;;;;;;14.00;3.83;;;16.80;99.90;;;;;;6305922;28;20743;-54
2022/04/29 08:11:28;;;;;;;3.80;3.40;;;16.80;99.90;;;;;;6300436;28;26226;-55
2022/04/29 08:14:31;;;;;;;5.80;3.87;;;16.80;99.90;;;;;;6303929;28;20240;-54
2022/04/29 08:17:51;;;;;;;5.50;3.33;;;17.00;99.90;;;;;;6277824;28;20246;-55
2022/04/29 08:20:57;;;;;;;5.77;3.43;;;17.00;99.90;;;;;;6279031;28;20395;-53
2022/04/29 08:23:59;;;;;;;5.30;3.07;;;16.90;99.90;;;;;;6280028;28;20325;-56
2022/04/29 08:27:02;;;;;;;5.97;3.80;;;16.70;99.90;;;;;;6271600;28;20765;-54
2022/04/29 08:30:07;;;;;;;3.77;3.47;;;16.60;99.90;;;;;;6284991;28;20311;-55
2022/04/29 08:33:13;;;;;;;4.13;3.73;;;16.70;99.90;;;;;;6297471;28;20248;-55
2022/04/29 08:36:17;;;;;;;4.00;3.70;;;16.90;99.90;;;;;;6290466;28;20251;-54
2022/04/29 08:39:20;;;;;;;5.63;4.17;;;17.10;99.90;;;;;;6292719;28;20335;-54
2022/04/29 08:42:28;;;;;;;6.37;3.87;;;17.30;99.90;;;;;;6277150;28;20265;-56
2022/04/29 08:45:30;;;;;;;11.07;4.20;;;17.30;99.90;;;;;;6284776;28;20268;-54
2022/04/29 08:48:36;;;;;;;4.40;4.10;;;17.30;99.90;;;;;;6284187;28;20287;-55
2022/04/29 08:51:40;;;;;;;5.03;4.30;;;17.40;99.90;;;;;;6282393;28;20753;-56
2022/04/29 09:01:26;;;;;;;9.83;4.60;;;17.10;99.90;;;;;;6297391;28;20366;-55
2022/04/29 09:04:29;;;;;;;6.47;4.00;;;17.30;99.90;;;;;;6309452;28;20267;-61
2022/04/29 09:07:53;;;;;;;7.17;4.20;;;17.30;99.90;;;;;;6303879;28;20283;-55
2022/04/29 09:10:57;;;;;;;6.00;4.43;;;17.40;99.90;;;;;;6303254;28;20674;-56
2022/04/29 09:14:21;;;;;;;4.63;4.20;;;17.40;99.90;;;;;;6301318;28;20293;-58
2022/04/29 09:17:27;;;;;;;7.57;4.73;;;17.40;99.90;;;;;;6282078;28;20280;-55
2022/04/29 09:20:30;;;;;;;5.57;4.50;;;17.40;99.90;;;;;;6282469;28;20237;-53
2022/04/29 09:23:36;;;;;;;7.33;5.00;;;17.20;99.90;;;;;;6280585;28;20973;-55
2022/04/29 09:26:45;;;;;;;6.93;4.97;;;17.10;99.90;;;;;;6275730;28;20616;-54
2022/04/29 09:29:48;;;;;;;9.33;5.27;;;17.40;99.90;;;;;;6276480;28;20229;-54
2022/04/29 09:32:52;;;;;;;10.23;4.80;;;17.40;99.90;;;;;;6278228;28;20521;-55
2022/04/29 09:35:57;;;;;;;11.10;4.70;;;17.70;99.90;;;;;;6307208;28;20319;-54
2022/04/29 09:42:37;;;;;;;4.83;4.20;;;18.10;99.90;;;;;;6275206;28;20291;-55
2022/04/29 09:45:40;;;;;;;4.80;4.47;;;18.30;99.90;;;;;;6304606;28;20284;-56
2022/04/29 09:49:02;;;;;;;7.70;4.77;;;18.40;99.90;;;;;;6309593;28;20386;-54
2022/04/29 09:52:09;;;;;;;7.03;5.23;;;18.40;99.90;;;;;;6300977;28;20338;-54
2022/04/29 09:55:17;;;;;;;6.90;4.83;;;18.40;99.90;;;;;;6300449;28;20704;-56
2022/04/29 09:58:20;;;;;;;5.90;4.97;;;18.30;99.90;;;;;;6302101;28;20339;-53
2022/04/29 10:01:22;;;;;;;5.50;4.83;;;18.20;99.90;;;;;;6306625;28;20233;-55
2022/04/29 10:04:25;;;;;;;10.57;5.90;;;18.10;99.90;;;;;;6307640;28;20244;-54
2022/04/29 10:07:34;;;;;;;10.00;5.27;;;18.00;99.90;;;;;;6310206;28;20763;-55
2022/04/29 10:10:47;;;;;;;6.47;5.33;;;18.10;99.90;;;;;;6278281;28;20311;-56
2022/04/29 10:13:51;;;;;;;14.87;5.53;;;18.10;99.90;;;;;;6300022;28;20311;-55
2022/04/29 10:23:39;;;;;;;10.73;6.03;;;18.40;99.90;;;;;;6286829;28;20236;-56
2022/04/29 10:26:43;;;;;;;6.03;5.23;;;18.50;99.90;;;;;;6277041;28;20276;-54
2022/04/29 10:29:46;;;;;;;13.00;5.43;;;18.60;99.90;;;;;;6274860;27;20730;-51
2022/04/29 10:33:01;;;;;;;10.73;5.43;;;18.70;99.90;;;;;;6276266;28;20722;-55
2022/04/29 10:36:15;;;;;;;8.90;5.60;;;18.80;99.90;;;;;;6284929;28;20280;-55
2022/04/29 10:39:19;;;;;;;9.07;6.07;;;18.90;99.90;;;;;;6303784;28;20236;-55
2022/04/29 10:42:24;;;;;;;5.90;5.30;;;18.60;99.90;;;;;;6302401;28;20938;-55
2022/04/29 10:45:27;;;;;;;10.77;6.23;;;18.60;99.90;;;;;;6301902;28;20262;-55
2022/04/29 10:48:31;;;;;;;14.37;5.47;;;18.60;99.90;;;;;;6288493;28;20389;-51
2022/04/29 10:51:47;;;;;;;7.60;5.93;;;18.80;99.90;;;;;;6275576;28;20578;-53
2022/04/29 10:54:56;;;;;;;6.80;6.20;;;18.80;99.90;;;;;;6272667;28;20237;-55
2022/04/29 10:58:04;;;;;;;7.43;5.83;;;18.70;99.90;;;;;;6273724;28;20248;-54
2022/04/29 11:01:23;;;;;;;6.70;5.67;;;18.70;99.90;;;;;;6289869;28;20492;-55
2022/04/29 11:04:46;;;;;;;8.93;6.03;;;18.70;99.90;;;;;;6301291;28;20229;-55
2022/04/29 11:07:49;;;;;;;8.70;6.00;;;18.90;99.90;;;;;;6302869;27;20244;-53
2022/04/29 11:10:56;;;;;;;7.33;5.90;;;18.70;99.90;;;;;;6301966;28;20278;-54
2022/04/29 11:14:01;;;;;;;6.00;5.50;;;18.80;99.90;;;;;;6299486;28;20305;-55
2022/04/29 11:17:11;;;;;;;6.57;5.97;;;18.90;99.90;;;;;;6305077;27;20243;-54
2022/04/29 11:20:16;;;;;;;13.33;5.93;;;18.90;99.90;;;;;;6300712;28;20228;-57
2022/04/29 11:26:55;;;;;;;6.23;5.77;;;19.10;99.90;;;;;;6295456;27;20251;-55
2022/04/29 11:30:01;;;;;;;7.20;5.63;;;19.20;99.90;;;;;;6300193;28;20309;-55
2022/04/29 11:33:07;;;;;;;5.90;5.27;;;19.30;99.90;;;;;;6286349;28;20243;-53
2022/04/29 11:36:14;;;;;;;7.60;5.40;;;19.50;99.90;;;;;;6307245;28;20362;-54
2022/04/29 11:39:18;;;;;;;7.17;5.23;;;19.70;99.90;;;;;;6307809;28;20470;-54
2022/04/29 11:42:21;;;;;;;6.20;5.40;;;19.50;99.90;;;;;;6298020;28;20320;-54
2022/04/29 11:45:25;;;;;;;5.20;4.70;;;19.70;99.90;;;;;;6302463;28;20709;-55
2022/04/29 11:48:28;;;;;;;6.43;5.27;;;19.60;99.90;;;;;;6299861;28;21053;-55
2022/04/29 11:51:31;;;;;;;6.37;5.43;;;19.60;99.90;;;;;;6302289;28;20333;-55
2022/04/29 11:54:34;;;;;;;6.33;5.53;;;19.50;99.90;;;;;;6302014;28;20293;-54
2022/04/29 11:57:44;;;;;;;6.17;5.60;;;19.70;99.90;;;;;;6300312;28;20432;-55
2022/04/29 12:00:54;;;;;;;5.80;5.30;;;19.70;99.90;;;;;;6300789;28;20252;-55
2022/04/29 12:03:57;;;;;;;7.77;5.60;;;19.90;99.90;;;;;;6302741;28;20844;-54
2022/04/29 12:07:01;;;;;;;8.00;5.73;;;20.10;99.90;;;;;;6306950;28;20787;-54
2022/04/29 12:10:17;;;;;;;6.03;4.93;;;20.10;99.90;;;;;;6303709;28;20236;-54
2022/04/29 12:13:21;;;;;;;8.33;5.87;;;20.20;99.90;;;;;;6308673;28;20319;-55
2022/04/29 12:16:28;;;;;;;10.37;6.43;;;20.30;99.90;;;;;;6306004;28;20397;-54
2022/04/29 12:19:31;;;;;;;7.57;6.37;;;20.10;99.90;;;;;;6307302;28;20319;-57
2022/04/29 12:22:36;;;;;;;6.37;5.57;;;20.10;99.90;;;;;;6311533;27;20232;-55
2022/04/29 12:25:42;;;;;;;7.70;6.00;;;20.00;99.90;;;;;;6276022;28;20241;-54
2022/04/29 12:28:53;;;;;;;8.00;6.53;;;20.20;99.90;;;;;;6286824;28;20271;-53
2022/04/29 12:35:29;;;;;;;7.57;6.87;;;19.90;99.90;;;;;;6281032;28;20630;-54
2022/04/29 12:38:34;;;;;;;8.00;5.83;;;19.90;99.90;;;;;;6283802;28;20702;-53
2022/04/29 12:41:36;;;;;;;6.80;5.70;;;19.90;99.90;;;;;;6301077;28;20229;-55
2022/04/29 12:45:06;;;;;;;8.13;5.80;;;20.00;99.90;;;;;;6309758;28;20369;-55
2022/04/29 12:48:11;;;;;;;5.50;4.83;;;20.10;99.90;;;;;;6307923;28;20281;-55
2022/04/29 12:51:26;;;;;;;6.30;5.13;;;20.40;99.90;;;;;;6302510;28;20236;-55
2022/04/29 12:54:29;;;;;;;5.73;5.30;;;20.40;99.90;;;;;;6276909;28;20344;-55
2022/04/29 12:57:32;;;;;;;7.37;5.63;;;20.40;99.90;;;;;;6274334;28;20257;-56
2022/04/29 13:00:36;;;;;;;9.63;6.53;;;20.50;99.90;;;;;;6273222;28;20233;-54
2022/04/29 13:03:41;;;;;;;6.97;5.63;;;20.50;99.90;;;;;;6281841;28;20233;-53
2022/04/29 13:06:45;;;;;;;5.77;5.27;;;20.40;99.90;;;;;;6292393;28;20835;-61
2022/04/29 13:09:47;;;;;;;5.80;5.37;;;20.50;99.90;;;;;;6305333;28;20276;-53
2022/04/29 13:12:50;;;;;;;7.93;6.00;;;20.70;99.90;;;;;;6307131;28;20766;-55
2022/04/29 13:15:54;;;;;;;6.73;6.20;;;20.90;99.90;;;;;;6307035;28;20251;-54
2022/04/29 13:18:58;;;;;;;7.33;5.80;;;21.00;99.90;;;;;;6308789;28;20350;-54
2022/04/29 13:22:01;;;;;;;6.60;5.53;;;21.30;99.90;;;;;;6302601;28;20388;-54
2022/04/29 13:25:13;;;;;;;7.20;6.37;;;21.50;99.90;;;;;;6301916;28;20252;-55
2022/04/29 13:28:17;;;;;;;7.17;5.20;;;21.50;99.90;;;;;;6306442;28;20381;-54
2022/04/29 13:31:20;;;;;;;7.80;6.83;;;21.50;99.90;;;;;;6306033;28;20284;-54
2022/04/29 13:34:24;;;;;;;7.93;5.53;;;21.30;99.90;;;;;;6300974;28;20251;-54
2022/04/29 13:37:27;;;;;;;6.47;5.93;;;21.40;99.90;;;;;;6273924;28;20263;-51
2022/04/29 13:40:30;;;;;;;7.17;5.60;;;21.40;99.90;;;;;;6273057;28;20504;-57
2022/04/29 13:43:34;;;;;;;6.47;5.83;;;21.40;99.90;;;;;;6277403;28;20316;-53
2022/04/29 13:46:58;;;;;;;7.60;5.97;;;21.50;99.90;;;;;;6292507;28;20301;-54
2022/04/29 13:50:03;;;;;;;8.53;6.03;;;21.40;99.90;;;;;;6302355;28;20419;-56
2022/04/29 13:53:11;;;;;;;7.73;5.80;;;21.50;99.90;;;;;;6310078;28;20315;-54
2022/04/29 13:56:15;;;;;;;8.40;5.20;;;21.50;99.90;;;;;;6301866;27;20315;-55
2022/04/29 13:59:18;;;;;;;5.57;5.10;;;21.50;99.90;;;;;;6310992;28;20319;-54
2022/04/29 14:02:21;;;;;;;15.57;6.37;;;21.20;99.90;;;;;;6305024;28;20322;-55
2022/04/29 14:05:29;;;;;;;11.47;6.23;;;21.00;99.90;;;;;;6304229;28;20328;-54
2022/04/29 14:08:33;;;;;;;6.47;5.87;;;20.60;99.90;;;;;;6305574;28;20255;-54
2022/04/29 14:11:37;;;;;;;7.93;5.70;;;20.50;99.90;;;;;;6313469;28;20259;-54
2022/04/29 14:14:40;;;;;;;5.87;5.37;;;20.30;99.90;;;;;;6308982;28;20314;-54
2022/04/29 14:17:44;;;;;;;7.80;5.70;;;20.30;99.90;;;;;;6307165;28;20476;-55
2022/04/29 14:20:48;;;;;;;8.37;5.57;;;20.40;99.90;;;;;;6305289;28;20627;-55
2022/04/29 14:23:51;;;;;;;6.70;6.07;;;20.40;99.90;;;;;;6304039;28;20250;-54
2022/04/29 14:26:55;;;;;;;7.83;6.63;;;20.50;99.90;;;;;;6303361;28;20241;-55
2022/04/29 14:29:58;;;;;;;8.70;5.93;;;20.40;99.90;;;;;;6302191;28;20297;-54
2022/04/29 14:33:01;;;;;;;7.17;6.23;;;20.40;99.90;;;;;;6305225;28;20234;-54
2022/04/29 14:36:06;;;;;;;14.00;6.43;;;20.40;99.90;;;;;;6301191;28;20349;-55
2022/04/29 14:39:10;;;;;;;14.07;6.93;;;20.30;99.90;;;;;;6303037;28;20289;-55
2022/04/29 14:42:13;;;;;;;7.27;6.30;;;20.20;99.90;;;;;;6300592;28;20703;-54
2022/04/29 14:45:15;;;;;;;8.20;6.50;;;20.30;99.90;;;;;;6305866;28;20380;-54
2022/04/29 14:48:18;;;;;;;13.27;6.80;;;20.30;99.90;;;;;;6304919;28;20325;-54
2022/04/29 14:51:25;;;;;;;7.47;5.97;;;20.10;99.90;;;;;;6304892;28;20236;-54
2022/04/29 14:54:28;;;;;;;6.20;5.60;;;20.10;99.90;;;;;;6308910;27;20272;-54
2022/04/29 14:57:31;;;;;;;6.10;5.60;;;20.30;99.90;;;;;;6303956;28;20954;-55
2022/04/29 15:00:33;;;;;;;6.90;6.20;;;20.30;99.90;;;;;;6301753;27;20324;-55
2022/04/29 15:03:36;;;;;;;7.43;6.60;;;20.50;99.90;;;;;;6306129;28;20224;-54
2022/04/29 15:06:41;;;;;;;9.20;5.93;;;20.50;99.90;;;;;;6299830;28;20247;-53
2022/04/29 15:16:24;;;;;;;5.47;4.87;;;20.30;99.90;;;;;;6305859;27;20387;-54
2022/04/29 15:19:27;;;;;;;5.90;5.30;;;20.20;99.90;;;;;;6302438;28;20239;-54
2022/04/29 15:22:32;;;;;;;7.80;5.47;;;20.20;99.90;;;;;;6299936;28;20867;-54
2022/04/29 15:25:36;;;;;;;5.67;5.17;;;20.20;99.90;;;;;;6301253;28;20245;-55
2022/04/29 15:28:39;;;;;;;7.50;5.70;;;20.40;99.90;;;;;;6301647;28;20400;-54
2022/04/29 15:32:02;;;;;;;8.40;4.97;;;20.40;99.90;;;;;;6274084;28;20329;-54
2022/04/29 15:35:07;;;;;;;5.10;4.70;;;20.40;99.90;;;;;;6274041;28;20241;-54
2022/04/29 15:38:11;;;;;;;7.43;5.80;;;20.50;99.90;;;;;;6266444;28;20232;-55
2022/04/29 15:41:14;;;;;;;5.80;5.00;;;20.60;99.90;;;;;;6267910;28;20327;-55
2022/04/29 15:44:17;;;;;;;8.57;5.67;;;20.60;99.90;;;;;;6281691;28;20251;-54
2022/04/29 15:47:21;;;;;;;5.40;4.20;;;20.60;99.90;;;;;;6300791;28;20251;-54
2022/04/29 15:50:25;;;;;;;7.97;4.83;;;20.50;99.90;;;;;;6298982;28;20232;-55
2022/04/29 15:53:29;;;;;;;8.10;5.57;;;20.40;99.90;;;;;;6302036;28;20236;-54
2022/04/29 15:56:33;;;;;;;6.03;4.90;;;20.50;99.90;;;;;;6286355;28;20743;-54
2022/04/29 15:59:36;;;;;;;5.90;4.90;;;20.50;99.90;;;;;;6297749;28;20399;-54
2022/04/29 16:02:38;;;;;;;6.27;5.60;;;20.40;99.90;;;;;;6307849;28;20240;-53
2022/04/29 16:05:43;;;;;;;5.60;5.30;;;20.40;99.90;;;;;;6301859;28;20260;-55
2022/04/29 16:08:50;;;;;;;5.53;5.03;;;20.30;99.90;;;;;;6302485;28;20839;-55
2022/04/29 16:11:53;;;;;;;6.40;5.80;;;20.20;99.90;;;;;;6304546;28;20256;-54
2022/04/29 16:14:56;;;;;;;7.83;4.90;;;20.20;99.90;;;;;;6306212;28;20240;-55
2022/04/29 16:21:19;;;;;;;7.27;5.60;;;20.20;99.90;;;;;;6301302;28;20736;-55
2022/04/29 16:27:51;;;;;;;5.60;5.13;;;20.00;99.90;;;;;;6289925;28;20358;-55
2022/04/29 16:30:54;;;;;;;6.23;5.20;;;20.00;99.90;;;;;;6279960;28;20485;-55
2022/04/29 16:33:58;;;;;;;5.87;5.37;;;19.90;99.90;;;;;;6274363;28;20901;-55
2022/04/29 16:37:01;;;;;;;7.87;5.43;;;19.80;99.90;;;;;;6281022;27;20333;-54
2022/04/29 16:40:06;;;;;;;10.03;5.60;;;19.70;99.90;;;;;;6290596;28;20314;-55
2022/04/29 16:43:09;;;;;;;5.43;4.90;;;19.50;99.90;;;;;;6301633;28;20241;-54
2022/04/29 16:46:19;;;;;;;6.43;5.60;;;19.40;99.90;;;;;;6308177;28;20934;-56
2022/04/29 16:49:22;;;;;;;7.53;5.50;;;19.30;99.90;;;;;;6301946;28;20397;-56
2022/04/29 16:52:25;;;;;;;7.83;5.77;;;19.30;99.90;;;;;;6311307;28;20326;-55
2022/04/29 16:55:29;;;;;;;10.10;5.70;;;19.10;99.90;;;;;;6295540;28;20244;-53
2022/04/29 16:58:45;;;;;;;7.57;6.30;;;19.00;99.90;;;;;;6308163;28;20229;-55